Aérodrome :
LOGIN :

S'inscrire | Disclaimer

   EN    FR    IT 

 










Légende :    VFR   VFR Marginal   IFR   IFR Intensif   IFR Très Intensif
Visi : 
Plafond : 
>= 8 km
>= 3000ft
5 à 8 km
1000 à 3000 ft
1500m à 5 km
500 à 1000 ft
800 à 1500m
200 à 500 ft
< 800m
< 200 ft
Symboles :   Orages  Brouillard  Fortes neiges  Fortes précipitations  Vent > 20 kt
SIGMETs :   Divers  Orages  Givrage  Turbulence  Onde Orograph.  Cendres Volcan.







- Altitude de l'aérodrome : 1306 ft
- Code IATA : ACH


LSZR - Alten Rhein

DERNIER METAR :
  • 141250Z 26006KT 230V300 9999 FEW033 SCT053 BKN080 05/M00 Q1005 NOSIG RMK I

METARs EXPIRÉS :
  • 141220Z 26006KT 230V300 9999 FEW033 SCT053 BKN080 05/M00 Q1005 NOSIG RMK I
  • 141150Z 25004KT 190V290 9999 FEW013 SCT033 BKN053 05/01 Q1006 NOSIG RMK H
  • 141120Z 24007KT 210V290 9999 -RA FEW013 BKN033 04/01 Q1006 RERA NOSIG RMK G
  • 141050Z 24007KT 210V290 9999 -RA FEW013 BKN033 04/01 Q1006 NOSIG RMK G
  • 141020Z 27007KT 220V300 9999 BKN060 05/M01 Q1007 NOSIG RMK F
  • 140950Z 25006KT 190V310 9999 BKN060 05/M01 Q1007 NOSIG RMK F

TAF TAF LSZR
Valide du 14 à 12h jusqu'au 14 à 21h UTC


141125Z 1412/1421 24007KT 9999 -RA FEW013 BKN030
PROB40
TEMPO 1412/1421 24015G25KT SHRA
PROB30
TEMPO 1419/1421 2500 -SHRASN BKN010
ATIS : +41 71 858 51 66
Pas de NOTAMs connus pour ce terrain.



MET'MAP, la Météo Aéronautique d'un coup d'oeil ! - Copyright ORBIFLY Décembre 2007 - Disclaimer

ORBIFLY MET'MAP TEAM :

Programmation & Développement : Alexandra Zaïnal
Conception & Développement : Baudouin d'Aumeries
Co-Programmation & Développement : Marc-Olivier Méhu
Soutien technique & logistique : Manuel Goepfert

Contact : metmap@orbifly.com




SOURCES & CREDITS :

   NOAA